createdAt,value
2022-11-07T00:01:55.960Z,9.25
2022-11-07T00:04:23.665Z,9.31
2022-11-07T00:06:50.535Z,9.25
2022-11-07T00:09:17.916Z,9.32
2022-11-07T00:11:44.833Z,9.34
2022-11-07T00:14:13.241Z,9.31
2022-11-07T00:16:39.931Z,9.44
2022-11-07T00:19:08.885Z,9.47
2022-11-07T00:21:38.349Z,9.50
2022-11-07T00:24:10.345Z,9.49
2022-11-07T00:27:03.644Z,9.54
2022-11-07T00:29:30.287Z,9.54
2022-11-07T00:32:02.830Z,9.55
2022-11-07T00:34:30.697Z,9.56
2022-11-07T00:36:57.575Z,9.58
2022-11-07T00:39:26.132Z,9.69
2022-11-07T00:41:52.886Z,9.68
2022-11-07T00:44:19.810Z,9.63
2022-11-07T00:46:48.382Z,9.62
2022-11-07T00:49:15.336Z,9.59
2022-11-07T00:51:42.101Z,9.68
2022-11-07T00:54:09.366Z,9.76
2022-11-07T00:56:36.226Z,9.72
2022-11-07T00:59:06.991Z,9.71
2022-11-07T01:01:35.344Z,9.60
2022-11-07T01:04:21.218Z,9.67
2022-11-07T01:06:49.936Z,9.69
2022-11-07T01:09:21.562Z,9.83
2022-11-07T01:11:56.467Z,9.85
2022-11-07T01:14:24.200Z,9.77
2022-11-07T01:16:51.618Z,9.83
2022-11-07T01:19:19.458Z,9.86
2022-11-07T01:21:46.593Z,9.93
2022-11-07T01:24:15.103Z,9.98
2022-11-07T01:26:43.483Z,9.92
2022-11-07T01:29:10.639Z,9.88
2022-11-07T01:31:37.351Z,9.87
2022-11-07T01:34:05.104Z,9.95
2022-11-07T01:36:32.413Z,10.12
2022-11-07T01:39:00.901Z,10.07
2022-11-07T01:41:30.411Z,9.99
2022-11-07T01:44:03.064Z,10.00
2022-11-07T01:46:34.472Z,9.97
2022-11-07T01:49:29.494Z,10.08
2022-11-07T01:51:59.565Z,10.04
2022-11-07T01:54:38.371Z,10.10
2022-11-07T01:57:14.337Z,10.11
2022-11-07T02:00:10.398Z,10.18
2022-11-07T02:02:38.196Z,10.26
2022-11-07T02:05:07.478Z,10.29
2022-11-07T02:07:35.303Z,10.28
2022-11-07T02:10:04.197Z,10.22
2022-11-07T02:12:32.026Z,10.18
2022-11-07T02:15:00.156Z,10.21
2022-11-07T02:17:28.214Z,10.24
2022-11-07T02:19:56.864Z,10.31
2022-11-07T02:22:49.366Z,10.29
2022-11-07T02:25:19.674Z,10.26
2022-11-07T02:27:49.809Z,10.41
2022-11-07T02:30:23.802Z,10.42
2022-11-07T02:32:50.707Z,10.38
2022-11-07T02:35:43.502Z,10.35
2022-11-07T02:38:36.975Z,10.21
2022-11-07T02:41:09.296Z,10.25
2022-11-07T02:43:38.766Z,10.28
2022-11-07T02:46:10.542Z,10.31
2022-11-07T02:48:47.987Z,10.32
2022-11-07T02:51:15.140Z,10.48
2022-11-07T02:53:43.341Z,10.41
2022-11-07T02:56:11.996Z,10.32
2022-11-07T02:58:39.657Z,10.34
2022-11-07T03:01:13.370Z,10.48
2022-11-07T03:03:43.894Z,10.44
2022-11-07T03:06:38.369Z,10.40
2022-11-07T03:09:05.006Z,10.54
2022-11-07T03:11:31.697Z,10.46
2022-11-07T03:13:58.973Z,10.44
2022-11-07T03:16:26.781Z,10.45
2022-11-07T03:18:59.518Z,10.49
2022-11-07T03:21:26.439Z,10.40
2022-11-07T03:23:53.178Z,10.56
2022-11-07T03:26:21.540Z,10.59
2022-11-07T03:28:49.275Z,10.49
2022-11-07T03:31:17.512Z,10.44
2022-11-07T03:33:44.674Z,10.59
2022-11-07T03:36:12.584Z,10.70
2022-11-07T03:38:39.339Z,10.57
2022-11-07T03:41:08.360Z,10.53
2022-11-07T03:44:01.871Z,10.68
2022-11-07T03:46:29.980Z,10.57
2022-11-07T03:48:58.226Z,10.55
2022-11-07T03:51:26.307Z,10.51
2022-11-07T03:53:53.779Z,10.48
2022-11-07T03:56:21.606Z,10.71
2022-11-07T03:58:49.609Z,10.73
2022-11-07T04:01:19.143Z,10.77
2022-11-07T04:03:56.039Z,10.69
2022-11-07T04:06:24.448Z,10.79
2022-11-07T04:08:54.589Z,10.86
2022-11-07T04:11:42.902Z,10.80
2022-11-07T04:14:29.182Z,10.92
2022-11-07T04:17:16.018Z,10.78
2022-11-07T04:19:43.039Z,10.79
2022-11-07T04:22:11.168Z,10.88
2022-11-07T04:24:45.690Z,10.84
2022-11-07T04:27:35.558Z,10.90
2022-11-07T04:30:27.387Z,10.93
2022-11-07T04:33:05.916Z,10.91
2022-11-07T04:35:35.792Z,10.90
2022-11-07T04:38:05.254Z,11.01
2022-11-07T04:40:33.170Z,10.89
2022-11-07T04:43:03.518Z,10.98
2022-11-07T04:45:31.730Z,10.97
2022-11-07T04:48:00.341Z,11.02
2022-11-07T04:50:29.499Z,11.01
2022-11-07T04:52:57.853Z,11.00
2022-11-07T04:55:28.574Z,10.92
2022-11-07T04:57:55.383Z,10.92
2022-11-07T05:00:27.412Z,11.00
2022-11-07T05:02:56.421Z,11.04
2022-11-07T05:05:25.371Z,11.04
2022-11-07T05:07:53.209Z,11.18
2022-11-07T05:10:28.558Z,11.15
2022-11-07T05:12:56.553Z,11.14
2022-11-07T05:15:24.578Z,11.14
2022-11-07T05:17:58.691Z,11.17
2022-11-07T05:20:34.533Z,11.14
2022-11-07T05:23:21.768Z,11.15
2022-11-07T05:25:52.454Z,11.05
2022-11-07T05:28:31.214Z,10.96
2022-11-07T05:31:04.772Z,10.86
2022-11-07T05:33:57.221Z,10.84
2022-11-07T05:36:24.934Z,11.08
2022-11-07T05:38:54.430Z,10.87
2022-11-07T05:41:47.396Z,10.98
2022-11-07T05:44:23.648Z,11.02
2022-11-07T05:50:15.560Z,11.02
2022-11-07T05:53:11.395Z,11.00
2022-11-07T05:55:39.075Z,11.06
2022-11-07T05:58:12.439Z,11.02
2022-11-07T06:00:44.214Z,11.05
2022-11-07T06:03:18.431Z,10.97
2022-11-07T06:05:46.410Z,11.05
2022-11-07T06:08:16.283Z,11.04
2022-11-07T06:10:44.518Z,10.98
2022-11-07T06:13:16.375Z,11.11
2022-11-07T06:15:54.911Z,11.13
2022-11-07T06:18:25.178Z,11.12
2022-11-07T06:20:57.568Z,11.13
2022-11-07T06:23:31.514Z,11.21
2022-11-07T06:26:44.455Z,11.16
2022-11-07T06:29:12.985Z,11.12
2022-11-07T06:32:09.718Z,11.10
2022-11-07T06:34:56.963Z,11.20
2022-11-07T06:37:35.421Z,11.30
2022-11-07T06:43:07.414Z,11.30
2022-11-07T06:45:35.164Z,11.43
2022-11-07T06:48:08.645Z,11.31
2022-11-07T06:50:45.759Z,11.36
2022-11-07T06:53:14.501Z,11.30
2022-11-07T06:55:41.804Z,11.20
2022-11-07T06:58:11.836Z,11.23
2022-11-07T07:00:39.531Z,11.31
2022-11-07T07:03:32.867Z,11.30
2022-11-07T07:06:07.816Z,11.38
2022-11-07T07:08:37.728Z,11.22
2022-11-07T07:11:11.229Z,11.30
2022-11-07T07:13:38.647Z,11.43
2022-11-07T07:16:10.915Z,11.47
2022-11-07T07:18:40.630Z,11.45
2022-11-07T07:21:16.799Z,11.46
2022-11-07T07:23:50.935Z,11.51
2022-11-07T07:26:23.210Z,11.56
2022-11-07T07:28:55.260Z,11.51
2022-11-07T07:31:55.986Z,11.69
2022-11-07T07:34:24.875Z,11.69
2022-11-07T07:36:53.972Z,11.73
2022-11-07T07:39:27.744Z,11.69
2022-11-07T07:41:56.067Z,11.68
2022-11-07T07:44:26.487Z,11.77
2022-11-07T07:47:11.454Z,11.83
2022-11-07T07:49:40.664Z,11.80
2022-11-07T07:52:12.912Z,11.87
2022-11-07T07:54:46.391Z,11.80
2022-11-07T07:57:23.657Z,11.78
2022-11-07T08:00:05.290Z,11.96
2022-11-07T08:02:34.941Z,11.87
2022-11-07T08:05:11.221Z,11.91
2022-11-07T08:07:58.778Z,11.97
2022-11-07T08:10:41.426Z,12.01
2022-11-07T08:13:10.852Z,12.07
2022-11-07T08:15:41.762Z,12.06
2022-11-07T08:18:16.241Z,12.09
2022-11-07T08:20:47.609Z,12.12
2022-11-07T08:23:18.716Z,12.14
2022-11-07T08:25:57.390Z,12.31
2022-11-07T08:28:43.451Z,12.33
2022-11-07T08:31:28.668Z,12.48
2022-11-07T08:34:06.252Z,12.46
2022-11-07T08:36:59.844Z,12.43
2022-11-07T08:39:35.243Z,12.34
2022-11-07T08:42:06.464Z,12.41
2022-11-07T08:45:06.078Z,12.42
2022-11-07T08:47:33.272Z,12.56
2022-11-07T08:50:07.306Z,12.46
2022-11-07T08:52:39.382Z,12.66
2022-11-07T08:55:14.145Z,12.52
2022-11-07T08:57:41.774Z,12.38
2022-11-07T09:00:14.584Z,12.40
2022-11-07T09:03:23.866Z,12.62
2022-11-07T09:08:21.380Z,12.54
2022-11-07T09:11:16.112Z,12.55
2022-11-07T09:13:59.078Z,12.65
2022-11-07T09:16:36.826Z,12.66
2022-11-07T09:19:07.926Z,12.67
2022-11-07T09:21:37.116Z,12.77
2022-11-07T09:24:13.899Z,12.96
2022-11-07T09:26:48.559Z,12.95
2022-11-07T09:29:26.525Z,12.88
2022-11-07T09:32:11.882Z,13.02
2022-11-07T09:35:04.749Z,13.03
2022-11-07T09:37:46.128Z,13.21
2022-11-07T09:41:01.700Z,13.00
2022-11-07T09:43:48.537Z,12.90
2022-11-07T09:46:41.861Z,13.07
2022-11-07T09:52:49.643Z,13.09
2022-11-07T09:55:31.354Z,13.07
2022-11-07T09:58:39.723Z,13.10
2022-11-07T10:01:22.483Z,13.27
2022-11-07T10:04:22.799Z,13.23
2022-11-07T10:07:05.045Z,13.31
2022-11-07T10:10:01.816Z,13.25
2022-11-07T10:13:08.285Z,13.26
2022-11-07T10:15:56.769Z,13.12
2022-11-07T10:18:47.816Z,13.21
2022-11-07T10:21:38.167Z,13.29
2022-11-07T10:24:29.205Z,13.48
2022-11-07T10:29:55.789Z,13.52
2022-11-07T10:32:27.379Z,13.58
2022-11-07T10:35:04.546Z,13.46
2022-11-07T10:37:34.337Z,13.35
2022-11-07T10:40:17.751Z,13.47
2022-11-07T10:42:49.539Z,13.34
2022-11-07T10:45:26.467Z,13.39
2022-11-07T10:48:34.086Z,13.34
2022-11-07T10:51:10.136Z,13.29
2022-11-07T10:53:48.932Z,13.34
2022-11-07T10:56:20.499Z,13.46
2022-11-07T10:59:28.997Z,13.39
2022-11-07T11:02:10.892Z,13.42
2022-11-07T11:04:49.597Z,13.39
2022-11-07T11:07:27.187Z,13.48
2022-11-07T11:10:02.129Z,13.63
2022-11-07T11:13:07.365Z,13.50
2022-11-07T11:15:49.078Z,13.63
2022-11-07T11:18:21.462Z,13.50
2022-11-07T11:21:13.147Z,13.33
2022-11-07T11:23:43.658Z,13.35
2022-11-07T11:26:30.001Z,13.36
2022-11-07T11:29:12.902Z,13.43
2022-11-07T11:31:47.971Z,13.44
2022-11-07T11:34:41.525Z,13.47
2022-11-07T11:37:25.327Z,13.61
2022-11-07T11:40:10.963Z,13.67
2022-11-07T11:42:45.218Z,13.60
2022-11-07T11:45:32.337Z,13.43
2022-11-07T11:48:22.405Z,13.41
2022-11-07T11:50:55.979Z,13.34
2022-11-07T11:53:35.815Z,13.38
2022-11-07T11:56:22.154Z,13.37
2022-11-07T11:58:56.496Z,13.41
2022-11-07T12:01:35.119Z,13.50
2022-11-07T12:04:29.982Z,13.62
2022-11-07T12:10:10.790Z,13.66
2022-11-07T12:13:06.909Z,13.68
2022-11-07T12:16:10.664Z,13.69
2022-11-07T12:18:57.388Z,13.54
2022-11-07T12:22:05.514Z,13.56
2022-11-07T12:24:46.006Z,13.50
2022-11-07T12:27:42.890Z,13.61
2022-11-07T12:30:30.332Z,13.62
2022-11-07T12:33:20.674Z,13.58
2022-11-07T12:36:06.790Z,13.61
2022-11-07T12:38:51.168Z,13.69
2022-11-07T12:41:39.772Z,13.73
2022-11-07T12:44:29.909Z,13.70
2022-11-07T12:50:23.653Z,13.46
2022-11-07T12:53:13.689Z,13.53
2022-11-07T12:55:54.589Z,13.50
2022-11-07T12:58:28.313Z,13.54
2022-11-07T13:00:57.415Z,13.50
2022-11-07T13:03:31.041Z,13.55
2022-11-07T13:06:23.395Z,13.42
2022-11-07T13:09:09.329Z,13.31
2022-11-07T13:12:06.305Z,13.44
2022-11-07T13:14:35.248Z,13.45
2022-11-07T13:17:12.382Z,13.50
2022-11-07T13:19:45.469Z,13.28
2022-11-07T13:22:25.253Z,13.30
2022-11-07T13:25:16.741Z,13.27
2022-11-07T13:27:48.123Z,13.28
2022-11-07T13:30:17.515Z,13.30
2022-11-07T13:32:47.613Z,13.34
2022-11-07T13:35:23.690Z,13.26
2022-11-07T13:38:08.923Z,13.34
2022-11-07T13:40:48.967Z,13.33
2022-11-07T13:43:24.456Z,13.30
2022-11-07T13:45:55.757Z,13.27
2022-11-07T13:48:44.229Z,13.30
2022-11-07T13:51:23.041Z,13.33
2022-11-07T13:54:12.487Z,13.33
2022-11-07T13:57:11.051Z,13.42
2022-11-07T13:59:53.787Z,13.30
2022-11-07T14:02:33.998Z,13.31
2022-11-07T14:05:18.524Z,13.29
2022-11-07T14:07:54.526Z,13.31
2022-11-07T14:10:35.123Z,13.32
2022-11-07T14:13:09.783Z,13.37
2022-11-07T14:15:47.371Z,13.29
2022-11-07T14:18:19.767Z,13.33
2022-11-07T14:20:57.196Z,13.32
2022-11-07T14:23:29.211Z,13.32
2022-11-07T14:26:18.783Z,13.29
2022-11-07T14:28:48.425Z,13.39
2022-11-07T14:31:28.367Z,13.32
2022-11-07T14:34:04.438Z,13.27
2022-11-07T14:36:33.334Z,13.28
2022-11-07T14:39:05.168Z,13.28
2022-11-07T14:41:42.346Z,13.31
2022-11-07T14:44:17.754Z,13.34
2022-11-07T14:46:48.226Z,13.43
2022-11-07T14:49:48.801Z,13.23
2022-11-07T14:53:17.929Z,13.20
2022-11-07T14:56:04.493Z,13.26
2022-11-07T14:58:43.730Z,13.28
2022-11-07T15:08:09.751Z,13.24
2022-11-07T15:14:39.830Z,13.14
2022-11-07T15:20:57.251Z,13.24
2022-11-07T15:23:47.289Z,13.23
2022-11-07T15:26:39.794Z,13.31
2022-11-07T15:29:35.144Z,13.20
2022-11-07T15:33:06.544Z,13.12
2022-11-07T15:39:05.831Z,13.27
2022-11-07T15:41:51.573Z,13.24
2022-11-07T15:44:58.720Z,13.23
2022-11-07T15:47:55.798Z,13.10
2022-11-07T15:51:05.769Z,13.21
2022-11-07T15:56:48.575Z,13.13
2022-11-07T15:59:47.598Z,13.07
2022-11-07T16:03:04.017Z,13.08
2022-11-07T16:06:21.869Z,13.09
2022-11-07T16:11:50.994Z,13.14
2022-11-07T16:17:30.125Z,13.14
2022-11-07T16:20:01.505Z,13.23
2022-11-07T16:22:32.692Z,13.17
2022-11-07T16:25:15.050Z,13.16
2022-11-07T16:28:00.966Z,13.16
2022-11-07T16:30:28.512Z,12.92
2022-11-07T16:32:56.258Z,12.87
2022-11-07T16:35:25.321Z,12.78
2022-11-07T16:37:52.112Z,12.94
2022-11-07T16:40:20.281Z,12.96
2022-11-07T16:42:47.727Z,12.92
2022-11-07T16:45:19.396Z,12.78
2022-11-07T16:47:46.473Z,12.76
2022-11-07T16:50:15.529Z,12.82
2022-11-07T16:52:45.944Z,12.84
2022-11-07T16:55:17.902Z,12.96
2022-11-07T16:57:45.944Z,12.84
2022-11-07T17:00:22.135Z,12.94
2022-11-07T17:02:50.491Z,12.92
2022-11-07T17:05:17.901Z,12.82
2022-11-07T17:07:46.320Z,12.94
2022-11-07T17:10:17.049Z,12.80
2022-11-07T17:12:43.868Z,12.81
2022-11-07T17:15:14.204Z,12.90
2022-11-07T17:17:41.251Z,12.90
2022-11-07T17:20:41.084Z,12.71
2022-11-07T17:23:19.053Z,12.76
2022-11-07T17:26:02.645Z,12.66
2022-11-07T17:31:49.903Z,12.64
2022-11-07T17:34:16.740Z,12.73
2022-11-07T17:36:51.891Z,12.57
2022-11-07T17:39:35.714Z,12.58
2022-11-07T17:42:04.907Z,12.61
2022-11-07T17:44:34.879Z,12.65
2022-11-07T17:47:05.374Z,12.55
2022-11-07T17:49:38.951Z,12.59
2022-11-07T17:52:09.949Z,12.55
2022-11-07T17:54:37.334Z,12.42
2022-11-07T17:57:15.854Z,12.52
2022-11-07T17:59:46.105Z,12.55
2022-11-07T18:02:19.076Z,12.57
2022-11-07T18:04:46.885Z,12.50
2022-11-07T18:07:19.236Z,12.61
2022-11-07T18:09:49.981Z,12.62
2022-11-07T18:12:16.925Z,12.56
2022-11-07T18:14:45.590Z,12.52
2022-11-07T18:17:13.776Z,12.62
2022-11-07T18:19:44.093Z,12.84
2022-11-07T18:22:12.143Z,12.70
2022-11-07T18:24:40.622Z,12.59
2022-11-07T18:27:10.501Z,12.72
2022-11-07T18:29:41.903Z,12.95
2022-11-07T18:32:09.482Z,12.90
2022-11-07T18:34:36.639Z,12.92
2022-11-07T18:40:12.440Z,12.86
2022-11-07T18:42:46.495Z,12.98
2022-11-07T18:45:17.211Z,12.84
2022-11-07T18:47:50.398Z,12.75
2022-11-07T18:50:23.814Z,12.81
2022-11-07T18:53:00.471Z,12.82
2022-11-07T18:55:29.265Z,12.77
2022-11-07T18:58:03.095Z,12.89
2022-11-07T19:00:30.468Z,12.95
2022-11-07T19:02:58.841Z,12.78
2022-11-07T19:05:51.666Z,12.86
2022-11-07T19:08:19.490Z,12.91
2022-11-07T19:10:48.567Z,12.75
2022-11-07T19:13:15.439Z,12.88
2022-11-07T19:15:42.911Z,12.73
2022-11-07T19:18:11.835Z,12.59
2022-11-07T19:20:40.137Z,12.70
2022-11-07T19:23:08.427Z,12.73
2022-11-07T19:25:42.852Z,12.78
2022-11-07T19:28:10.936Z,12.74
2022-11-07T19:30:40.577Z,12.99
2022-11-07T19:33:12.982Z,12.85
2022-11-07T19:35:42.065Z,12.90
2022-11-07T19:38:11.609Z,12.95
2022-11-07T19:40:40.264Z,12.99
2022-11-07T19:43:17.803Z,12.86
2022-11-07T19:45:45.748Z,12.85
2022-11-07T19:48:14.005Z,12.94
2022-11-07T19:50:40.963Z,12.81
2022-11-07T19:53:09.383Z,12.76
2022-11-07T19:55:40.751Z,12.83
2022-11-07T19:58:13.517Z,12.77
2022-11-07T20:00:40.961Z,12.81
2022-11-07T20:03:09.954Z,12.92
2022-11-07T20:05:39.765Z,12.81
2022-11-07T20:08:08.046Z,12.75
2022-11-07T20:10:37.147Z,12.71
2022-11-07T20:13:06.169Z,12.88
2022-11-07T20:15:35.434Z,12.78
2022-11-07T20:18:04.297Z,12.73
2022-11-07T20:20:34.342Z,12.79
2022-11-07T20:23:02.055Z,12.84
2022-11-07T20:25:37.902Z,12.68
2022-11-07T20:28:19.851Z,12.72
2022-11-07T20:31:18.135Z,12.63
2022-11-07T20:33:59.712Z,12.63
2022-11-07T20:36:26.974Z,12.70
2022-11-07T20:39:01.280Z,12.52
2022-11-07T20:41:31.345Z,12.61
2022-11-07T20:44:07.408Z,12.46
2022-11-07T20:46:39.461Z,12.49
2022-11-07T20:49:14.536Z,12.51
2022-11-07T20:51:42.603Z,12.63
2022-11-07T20:54:13.297Z,12.62
2022-11-07T20:56:42.272Z,12.73
2022-11-07T20:59:11.269Z,12.64
2022-11-07T21:01:39.762Z,12.64
2022-11-07T21:04:17.026Z,12.75
2022-11-07T21:06:45.190Z,12.64
2022-11-07T21:09:12.416Z,12.71
2022-11-07T21:11:39.473Z,12.66
2022-11-07T21:14:08.698Z,12.74
2022-11-07T21:16:37.022Z,12.79
2022-11-07T21:19:15.081Z,12.67
2022-11-07T21:21:42.148Z,12.73
2022-11-07T21:24:13.590Z,12.67
2022-11-07T21:26:41.343Z,12.77
2022-11-07T21:29:10.710Z,12.65
2022-11-07T21:31:43.873Z,12.58
2022-11-07T21:34:13.678Z,12.64
2022-11-07T21:36:41.166Z,12.63
2022-11-07T21:39:09.371Z,12.65
2022-11-07T21:41:39.966Z,12.64
2022-11-07T21:44:11.538Z,12.81
2022-11-07T21:46:39.719Z,12.69
2022-11-07T21:49:08.292Z,12.77
2022-11-07T21:51:36.732Z,12.74
2022-11-07T21:54:05.953Z,12.78
2022-11-07T21:56:37.620Z,12.86
2022-11-07T21:59:10.106Z,12.81
2022-11-07T22:01:40.207Z,13.00
2022-11-07T22:04:12.953Z,13.09
2022-11-07T22:06:45.887Z,12.89
2022-11-07T22:09:16.046Z,12.91
2022-11-07T22:11:45.545Z,12.94
2022-11-07T22:14:19.626Z,12.96
2022-11-07T22:16:47.939Z,12.84
2022-11-07T22:19:16.474Z,12.73
2022-11-07T22:21:45.477Z,12.73
2022-11-07T22:24:15.040Z,12.84
2022-11-07T22:26:45.945Z,12.87
2022-11-07T22:29:14.306Z,12.83
2022-11-07T22:31:42.628Z,12.75
2022-11-07T22:34:14.283Z,12.77
2022-11-07T22:36:48.692Z,12.62
2022-11-07T22:39:17.393Z,12.69
2022-11-07T22:41:51.557Z,12.72
2022-11-07T22:44:31.207Z,12.60
2022-11-07T22:47:10.413Z,12.70
2022-11-07T22:50:15.335Z,12.69
2022-11-07T22:52:53.100Z,12.55
2022-11-07T22:56:44.590Z,12.71
2022-11-07T22:59:27.166Z,12.53
2022-11-07T23:08:36.163Z,12.68
2022-11-07T23:11:47.955Z,12.60
2022-11-07T23:14:33.848Z,12.61
2022-11-07T23:20:04.285Z,12.60
2022-11-07T23:22:38.133Z,12.59
2022-11-07T23:25:13.081Z,12.61
2022-11-07T23:27:45.718Z,12.55
2022-11-07T23:32:57.286Z,12.53
2022-11-07T23:35:27.048Z,12.51
2022-11-07T23:38:06.613Z,12.46
2022-11-07T23:40:54.235Z,12.54
2022-11-07T23:46:35.086Z,12.65
2022-11-07T23:49:21.108Z,12.48
2022-11-07T23:52:03.182Z,12.59
2022-11-07T23:54:58.833Z,12.68
2022-11-07T23:58:10.044Z,12.61
